Time;durP1;ratioP1;P1;durP2;ratioP2;P2;SDS_P1;SDS_P2;PMS_P1;PMS_P2;Temp;Humidity;BMP_temperature;BMP_pressure;BME280_temperature;BME280_humidity;BME280_pressure;Samples;Min_cycle;Max_cycle;Signal;HPM_P1;HPM_P2
2023/01/23 00:00:32;;;;;;;11.63;7.00;;;;;;;8.67;75.97;95615.03;5028573;28;20025;-75
2023/01/23 00:02:58;;;;;;;15.77;8.25;;;;;;;8.94;75.12;95654.66;5028394;28;20040;-75
2023/01/23 00:05:23;;;;;;;14.55;8.18;;;;;;;8.92;75.54;95643.56;5027614;28;20017;-75
2023/01/23 00:07:49;;;;;;;15.20;7.93;;;;;;;8.75;75.61;95620.66;5029082;28;20033;-75
2023/01/23 00:10:14;;;;;;;15.02;7.55;;;;;;;8.81;75.59;95653.25;5032311;28;20029;-75
2023/01/23 00:12:42;;;;;;;17.17;8.32;;;;;;;8.84;75.28;95650.91;5030602;28;20068;-75
2023/01/23 00:15:09;;;;;;;13.63;8.25;;;;;;;8.44;75.33;95605.56;5032703;28;20048;-75
2023/01/23 00:17:34;;;;;;;15.88;7.97;;;;;;;8.76;75.58;95664.56;5032481;28;20030;-75
2023/01/23 00:20:00;;;;;;;16.73;8.18;;;;;;;8.39;75.66;95616.09;5030250;28;20519;-75
2023/01/23 00:22:25;;;;;;;14.10;8.80;;;;;;;8.66;75.75;95619.53;5032098;28;20470;-75
2023/01/23 00:24:50;;;;;;;20.38;10.00;;;;;;;8.83;75.10;95659.88;5031975;28;20515;-75
2023/01/23 00:27:17;;;;;;;23.30;10.02;;;;;;;8.62;74.67;95609.72;5030874;28;20433;-75
2023/01/23 00:29:43;;;;;;;17.38;9.65;;;;;;;8.56;75.04;95598.25;5032512;28;20096;-75
2023/01/23 00:32:08;;;;;;;17.45;9.55;;;;;;;8.64;74.34;95603.09;5031128;28;20025;-75
2023/01/23 00:34:34;;;;;;;14.27;9.57;;;;;;;9.02;74.94;95660.31;5030782;28;20047;-75
2023/01/23 00:36:59;;;;;;;16.10;9.52;;;;;;;8.94;75.04;95650.19;5031859;28;20033;-75
2023/01/23 00:39:24;;;;;;;18.23;9.65;;;;;;;8.73;75.03;95612.19;5032077;28;20029;-75
2023/01/23 00:41:50;;;;;;;16.15;9.73;;;;;;;8.72;74.63;95623.00;5031339;28;20121;-75
2023/01/23 00:44:16;;;;;;;12.18;8.18;;;;;;;8.95;75.32;95665.00;5032062;28;20496;-75
2023/01/23 00:46:41;;;;;;;16.02;8.65;;;;;;;8.86;75.11;95669.16;5031783;28;20060;-75
2023/01/23 00:49:07;;;;;;;16.17;7.97;;;;;;;8.45;75.63;95607.97;5031739;28;20076;-75
2023/01/23 00:51:33;;;;;;;17.20;8.32;;;;;;;8.88;75.29;95669.69;5031340;28;20033;-75
2023/01/23 00:53:59;;;;;;;16.85;8.75;;;;;;;8.47;75.42;95618.25;5031393;28;20053;-75
2023/01/23 00:56:24;;;;;;;17.10;8.40;;;;;;;8.70;75.43;95651.53;5030291;28;20034;-75
2023/01/23 00:58:50;;;;;;;20.10;10.00;;;;;;;8.71;75.04;95658.41;5031600;28;20041;-75
2023/01/23 01:01:16;;;;;;;20.15;9.60;;;;;;;8.87;75.81;95683.97;5031257;28;20130;-75
2023/01/23 01:03:42;;;;;;;16.42;8.95;;;;;;;8.87;75.63;95682.13;5031196;28;20026;-75
2023/01/23 01:06:08;;;;;;;13.75;8.40;;;;;;;8.79;75.41;95660.63;5031827;28;20025;-75
2023/01/23 01:08:33;;;;;;;16.73;9.48;;;;;;;8.82;75.31;95663.56;5031355;28;20025;-75
2023/01/23 01:10:59;;;;;;;19.20;8.77;;;;;;;8.37;75.55;95603.13;5031564;28;20048;-75
2023/01/23 01:13:25;;;;;;;21.42;9.93;;;;;;;8.55;75.43;95625.75;5030501;28;20354;-75
2023/01/23 01:15:52;;;;;;;19.00;10.30;;;;;;;8.67;74.82;95638.81;5029779;28;20033;-75
2023/01/23 01:18:18;;;;;;;22.38;11.95;;;;;;;8.92;75.42;95678.75;5031211;28;20037;-75
2023/01/23 01:20:44;;;;;;;26.55;13.32;;;;;;;8.35;75.71;95605.19;5030510;28;20507;-75
2023/01/23 01:23:10;;;;;;;31.38;15.15;;;;;;;8.87;75.46;95686.63;5030371;28;20034;-75
2023/01/23 01:25:35;;;;;;;32.20;12.93;;;;;;;8.82;75.80;95686.56;5062968;28;20091;-75
2023/01/23 01:28:02;;;;;;;24.58;11.98;;;;;;;8.58;76.36;95651.69;5031175;28;20122;-75
2023/01/23 01:30:28;;;;;;;23.60;11.48;;;;;;;7.95;76.33;95557.16;5031077;28;20084;-75
2023/01/23 01:32:54;;;;;;;20.83;9.68;;;;;;;8.34;76.40;95630.03;5028579;28;20511;-75
2023/01/23 01:35:20;;;;;;;19.45;9.50;;;;;;;8.23;77.59;95623.03;5029497;28;20052;-75
2023/01/23 01:37:46;;;;;;;13.50;8.68;;;;;;;8.75;77.44;95699.19;5030950;28;20025;-75
2023/01/23 01:40:15;;;;;;;26.00;9.63;;;;;;;8.48;77.32;95659.50;5029750;28;20048;-75
2023/01/23 01:42:43;;;;;;;23.55;11.00;;;;;;;8.70;77.66;95696.47;5028551;28;20033;-75
2023/01/23 01:45:45;;;;;;;21.67;10.85;;;;;;;8.75;77.85;95697.34;5030909;28;20443;-75
2023/01/23 01:48:11;;;;;;;20.92;9.95;;;;;;;8.24;77.33;95619.31;5030423;28;20037;-75
2023/01/23 01:50:36;;;;;;;19.30;9.55;;;;;;;8.25;77.18;95609.53;5029225;28;20082;-75
2023/01/23 01:53:02;;;;;;;23.77;10.07;;;;;;;8.33;77.18;95630.28;5029553;28;20104;-75
2023/01/23 01:55:28;;;;;;;22.33;10.68;;;;;;;8.36;77.13;95627.94;5028849;28;20042;-75
2023/01/23 01:57:53;;;;;;;13.50;7.40;;;;;;;8.33;77.10;95625.78;5030721;28;20039;-75
2023/01/23 02:00:19;;;;;;;14.00;7.28;;;;;;;8.56;76.81;95674.94;5029119;28;20125;-75
2023/01/23 02:02:57;;;;;;;15.40;6.47;;;;;;;8.68;77.32;95693.31;5030015;28;20030;-75
2023/01/23 02:05:33;;;;;;;9.63;6.55;;;;;;;8.41;77.17;95658.91;5030202;28;20078;-75
2023/01/23 02:08:30;;;;;;;14.35;5.88;;;;;;;8.78;76.67;95703.97;5030705;28;20029;-75
2023/01/23 02:10:56;;;;;;;14.80;6.40;;;;;;;8.61;77.24;95677.66;5030327;28;20116;-76
2023/01/23 02:13:34;;;;;;;15.35;7.57;;;;;;;8.80;77.09;95707.19;5030018;28;20116;-76
2023/01/23 02:16:03;;;;;;;18.17;8.40;;;;;;;8.41;77.17;95633.28;5030392;28;20392;-76
2023/01/23 02:18:30;;;;;;;15.93;8.20;;;;;;;8.74;77.75;95701.03;5028902;28;20025;-76
2023/01/23 02:20:58;;;;;;;16.70;8.23;;;;;;;8.27;78.36;95639.16;5030168;28;20049;-75
2023/01/23 02:23:35;;;;;;;15.60;7.70;;;;;;;8.71;78.73;95712.09;5030494;28;20037;-78
2023/01/23 02:26:12;;;;;;;19.17;8.02;;;;;;;8.13;78.36;95612.31;5027141;28;20083;-77
2023/01/23 02:28:47;;;;;;;16.58;7.93;;;;;;;8.66;78.42;95708.63;5030184;28;20037;-77
2023/01/23 02:31:14;;;;;;;15.30;7.88;;;;;;;8.63;79.01;95703.81;5030024;28;20495;-77
2023/01/23 02:33:42;;;;;;;18.20;8.20;;;;;;;8.60;78.84;95702.47;5027659;28;20033;-77
2023/01/23 02:36:10;;;;;;;22.25;8.88;;;;;;;7.99;79.18;95614.56;5029895;28;20037;-77
2023/01/23 02:38:43;;;;;;;22.45;8.85;;;;;;;8.20;79.63;95649.91;5028584;28;20030;-77
2023/01/23 02:41:12;;;;;;;14.77;8.48;;;;;;;8.45;79.17;95679.31;5028670;28;20037;-78
2023/01/23 02:43:38;;;;;;;15.45;7.15;;;;;;;8.50;79.62;95713.72;5028532;28;20499;-77
2023/01/23 02:46:06;;;;;;;13.50;6.93;;;;;;;7.92;78.89;95597.28;5029706;28;20025;-77
2023/01/23 02:48:31;;;;;;;11.68;5.80;;;;;;;8.25;78.95;95667.66;5030146;28;20040;-77
2023/01/23 02:50:56;;;;;;;11.13;5.75;;;;;;;8.18;78.59;95661.78;5029762;28;20041;-77
2023/01/23 02:53:22;;;;;;;7.32;5.28;;;;;;;8.44;78.78;95706.78;5029548;28;20041;-78
2023/01/23 02:55:47;;;;;;;9.10;4.70;;;;;;;8.36;79.17;95701.94;5029384;28;20054;-78
2023/01/23 03:00:57;;;;;;;8.63;4.55;;;;;;;7.83;78.61;95628.63;5030080;28;20056;-78
2023/01/23 03:03:23;;;;;;;7.00;3.78;;;;;;;8.04;78.95;95675.34;5027966;28;20037;-77
2023/01/23 03:05:53;;;;;;;8.73;4.00;;;;;;;8.28;79.02;95702.34;5029512;28;20113;-77
2023/01/23 03:08:18;;;;;;;8.43;4.50;;;;;;;8.27;79.26;95706.03;5029757;28;20033;-78
2023/01/23 03:10:44;;;;;;;14.75;4.35;;;;;;;7.70;79.41;95621.81;5027952;28;20030;-77
2023/01/23 03:13:10;;;;;;;10.57;4.22;;;;;;;7.87;79.09;95650.84;5028833;28;20029;-78
2023/01/23 03:15:41;;;;;;;7.18;4.43;;;;;;;8.01;78.97;95673.19;5029323;28;20112;-77
2023/01/23 03:18:06;;;;;;;6.68;3.45;;;;;;;8.09;78.60;95680.69;5029762;28;20073;-77
2023/01/23 03:20:39;;;;;;;7.43;3.97;;;;;;;8.43;78.20;95726.34;5029275;28;20126;-77
2023/01/23 03:23:05;;;;;;;4.88;3.47;;;;;;;8.26;77.91;95674.56;5029212;28;20021;-77
2023/01/23 03:25:31;;;;;;;5.22;3.65;;;;;;;8.07;77.82;95659.03;5029510;28;20044;-77
2023/01/23 03:27:56;;;;;;;5.85;3.20;;;;;;;8.47;77.51;95718.69;5027750;28;20029;-77
2023/01/23 03:30:24;;;;;;;5.93;3.60;;;;;;;8.54;77.65;95708.75;5029493;28;20034;-77
2023/01/23 03:32:50;;;;;;;5.97;3.35;;;;;;;8.20;77.42;95663.13;5028844;28;20585;-77
2023/01/23 03:35:16;;;;;;;5.85;3.58;;;;;;;8.61;77.16;95708.56;5029642;28;20069;-77
2023/01/23 03:37:43;;;;;;;8.10;4.05;;;;;;;8.60;77.57;95709.63;5029116;28;20029;-78
2023/01/23 03:43:04;;;;;;;6.45;4.38;;;;;;;8.66;77.40;95708.63;5029546;28;20052;-77
2023/01/23 03:45:30;;;;;;;8.00;4.25;;;;;;;8.67;77.21;95716.31;5033337;28;20021;-77
2023/01/23 03:47:56;;;;;;;10.05;4.55;;;;;;;8.33;77.49;95667.25;5031285;28;20113;-77
2023/01/23 03:50:21;;;;;;;11.30;4.95;;;;;;;8.42;76.61;95679.81;5033280;28;20514;-78
2023/01/23 03:52:46;;;;;;;11.43;4.97;;;;;;;8.46;77.03;95678.28;5032470;28;20581;-78
2023/01/23 03:55:12;;;;;;;6.75;4.22;;;;;;;8.27;77.12;95670.88;5032604;28;20045;-77
2023/01/23 03:57:37;;;;;;;8.68;4.53;;;;;;;8.49;77.60;95722.72;5032852;28;20460;-77
2023/01/23 04:00:04;;;;;;;12.20;5.55;;;;;;;8.14;77.22;95679.97;5032900;28;20464;-77
2023/01/23 04:02:29;;;;;;;10.15;5.80;;;;;;;8.40;77.70;95721.53;5031122;28;20434;-78
2023/01/23 04:04:55;;;;;;;11.98;5.90;;;;;;;8.34;77.79;95724.38;5032945;28;20113;-77
2023/01/23 04:07:20;;;;;;;9.98;5.50;;;;;;;7.82;77.37;95618.28;5031034;28;20037;-77
2023/01/23 04:09:46;;;;;;;9.50;5.20;;;;;;;8.07;77.23;95661.66;5031496;28;20045;-77
2023/01/23 04:12:12;;;;;;;9.80;5.25;;;;;;;8.04;77.17;95672.72;5032522;28;20468;-77
2023/01/23 04:14:38;;;;;;;10.65;5.45;;;;;;;8.33;77.82;95723.56;5032490;28;20043;-77
2023/01/23 04:17:06;;;;;;;11.65;5.03;;;;;;;7.83;77.50;95638.38;5032683;28;20490;-77
2023/01/23 04:19:31;;;;;;;10.85;5.68;;;;;;;8.18;77.78;95712.78;5032418;28;20045;-77
2023/01/23 04:21:57;;;;;;;9.73;5.15;;;;;;;8.04;77.72;95700.97;5030681;28;20091;-77
2023/01/23 04:24:22;;;;;;;10.63;4.75;;;;;;;8.19;77.82;95726.78;5031078;28;20120;-77
2023/01/23 04:26:48;;;;;;;8.25;3.95;;;;;;;8.21;78.07;95730.78;5032421;28;20096;-77
2023/01/23 04:29:13;;;;;;;8.65;4.55;;;;;;;8.23;77.32;95735.84;5030468;28;20038;-77
2023/01/23 04:31:39;;;;;;;9.00;5.00;;;;;;;7.99;77.07;95693.78;5032504;28;20499;-77
2023/01/23 04:34:04;;;;;;;8.32;4.32;;;;;;;8.17;76.90;95731.50;5030746;28;20120;-78
2023/01/23 04:36:30;;;;;;;9.93;4.50;;;;;;;8.17;76.94;95713.81;5030709;28;20033;-78
2023/01/23 04:38:55;;;;;;;9.70;4.00;;;;;;;8.35;76.33;95734.69;5030004;28;20399;-77
2023/01/23 04:41:23;;;;;;;9.45;5.07;;;;;;;8.31;76.41;95738.88;5032424;28;20060;-77
2023/01/23 04:43:50;;;;;;;8.98;3.95;;;;;;;8.09;75.94;95701.81;5031876;28;20080;-77
2023/01/23 04:46:15;;;;;;;8.55;3.10;;;;;;;7.90;76.25;95682.03;5032047;28;20029;-77
2023/01/23 04:48:41;;;;;;;6.20;3.05;;;;;;;8.20;76.35;95752.97;5029993;28;20439;-77
2023/01/23 04:51:06;;;;;;;7.32;3.67;;;;;;;7.85;76.68;95703.13;5031822;28;20472;-77
2023/01/23 04:53:32;;;;;;;7.18;3.63;;;;;;;8.20;76.99;95745.03;5031272;28;20086;-77
2023/01/23 04:55:57;;;;;;;9.05;4.13;;;;;;;7.60;76.97;95656.03;5030892;28;20073;-77
2023/01/23 04:58:23;;;;;;;14.13;3.95;;;;;;;7.83;77.36;95693.81;5030110;28;20059;-77
2023/01/23 05:00:49;;;;;;;8.38;4.88;;;;;;;8.09;77.71;95740.66;5031104;28;20108;-77
2023/01/23 05:03:15;;;;;;;13.23;4.78;;;;;;;7.81;78.21;95695.91;5030062;28;20092;-77
2023/01/23 05:05:42;;;;;;;9.88;5.03;;;;;;;8.13;77.47;95747.88;5030982;28;20025;-77
2023/01/23 05:08:09;;;;;;;9.75;5.00;;;;;;;7.79;78.29;95700.63;5030897;28;20447;-77
2023/01/23 05:10:35;;;;;;;10.75;5.32;;;;;;;7.62;77.88;95676.91;5027195;28;20439;-79
2023/01/23 05:13:00;;;;;;;11.10;5.10;;;;;;;7.74;78.34;95723.28;5028107;28;20365;-79
2023/01/23 05:15:26;;;;;;;9.63;5.18;;;;;;;8.04;78.00;95744.03;5028723;28;20037;-77
2023/01/23 05:17:51;;;;;;;11.30;4.28;;;;;;;7.78;78.49;95736.00;5024022;28;20022;-77
2023/01/23 05:20:17;;;;;;;11.27;5.18;;;;;;;7.89;78.34;95720.06;5025909;28;20203;-79
2023/01/23 05:22:51;;;;;;;15.55;6.15;;;;;;;8.13;77.76;95755.78;5015292;28;20036;-78
2023/01/23 05:25:24;;;;;;;13.00;5.68;;;;;;;8.23;77.84;95759.63;5019402;28;20128;-78
2023/01/23 05:27:50;;;;;;;13.95;6.03;;;;;;;7.95;76.93;95705.06;5021475;28;20459;-78
2023/01/23 05:30:16;;;;;;;13.98;6.20;;;;;;;8.27;76.52;95766.81;5011982;28;20119;-78
2023/01/23 05:32:42;;;;;;;12.57;5.10;;;;;;;7.51;76.61;95630.28;5013361;28;20491;-78
2023/01/23 05:35:09;;;;;;;10.27;5.05;;;;;;;7.89;77.20;95730.63;5015448;28;20199;-77
2023/01/23 05:37:35;;;;;;;10.00;5.13;;;;;;;8.32;76.60;95790.66;5016137;28;20033;-78
2023/01/23 05:40:00;;;;;;;8.95;5.07;;;;;;;8.21;76.29;95754.56;5019937;28;20033;-78
2023/01/23 05:42:26;;;;;;;8.48;4.65;;;;;;;8.28;76.57;95786.09;5019462;28;20045;-78
2023/01/23 05:44:51;;;;;;;13.73;4.30;;;;;;;8.23;76.58;95797.41;5022185;28;20116;-77
2023/01/23 05:47:16;;;;;;;7.65;4.07;;;;;;;7.87;76.86;95724.78;5021960;28;20033;-78
2023/01/23 05:49:42;;;;;;;7.03;3.65;;;;;;;7.76;76.18;95707.19;5022875;28;20435;-78
2023/01/23 05:52:08;;;;;;;6.85;3.65;;;;;;;8.12;76.03;95766.59;5014361;28;20171;-79
2023/01/23 05:54:33;;;;;;;7.38;4.30;;;;;;;7.94;76.35;95738.59;5022151;28;20072;-79
2023/01/23 05:56:58;;;;;;;7.53;3.78;;;;;;;8.01;75.91;95764.88;5016999;28;20667;-78
2023/01/23 05:59:24;;;;;;;10.50;3.42;;;;;;;8.43;76.02;95805.63;5016519;28;20026;-80
2023/01/23 06:01:49;;;;;;;10.27;3.88;;;;;;;8.38;75.70;95818.78;5014917;28;20211;-79
2023/01/23 06:04:15;;;;;;;7.47;3.88;;;;;;;8.30;75.25;95789.31;5017585;28;20116;-78
2023/01/23 06:06:41;;;;;;;6.30;3.95;;;;;;;8.45;75.60;95818.63;5020105;28;20029;-79
2023/01/23 06:09:07;;;;;;;7.68;3.78;;;;;;;8.50;75.61;95823.97;5017978;28;20182;-79
2023/01/23 06:11:32;;;;;;;16.23;5.32;;;;;;;8.42;75.43;95827.03;5013446;28;20030;-80
2023/01/23 06:13:58;;;;;;;10.05;4.70;;;;;;;8.32;75.30;95811.00;5007761;28;20026;-79
2023/01/23 06:16:25;;;;;;;12.13;4.65;;;;;;;8.47;75.53;95838.44;5013183;28;20045;-81
2023/01/23 06:18:50;;;;;;;13.85;5.40;;;;;;;7.97;75.27;95761.91;5004521;28;20121;-79
2023/01/23 06:21:17;;;;;;;11.73;5.60;;;;;;;8.52;75.00;95846.47;5006649;28;20466;-80
2023/01/23 06:23:43;;;;;;;10.95;5.20;;;;;;;8.54;75.12;95850.72;5039030;28;22141;-81
2023/01/23 06:26:08;;;;;;;11.07;5.43;;;;;;;8.20;75.06;95779.38;5014594;28;20033;-80
2023/01/23 06:28:34;;;;;;;12.40;5.75;;;;;;;8.58;75.03;95839.41;5012144;28;20503;-81
2023/01/23 06:31:00;;;;;;;8.43;5.00;;;;;;;8.00;74.81;95760.63;5016754;28;20458;-80
2023/01/23 06:33:26;;;;;;;14.77;6.07;;;;;;;7.79;75.18;95748.16;5009345;28;20095;-82
2023/01/23 06:35:57;;;;;;;11.75;5.32;;;;;;;7.73;75.58;95757.84;5014291;28;20026;-81
2023/01/23 06:38:22;;;;;;;12.23;5.43;;;;;;;8.13;76.51;95828.97;5013756;28;20041;-81
2023/01/23 06:40:48;;;;;;;11.27;5.53;;;;;;;7.36;76.98;95741.69;5015341;28;20400;-82
2023/01/23 06:43:13;;;;;;;10.20;5.43;;;;;;;7.42;76.92;95750.47;5015420;28;20038;-83
2023/01/23 06:45:43;;;;;;;13.13;5.90;;;;;;;7.93;77.67;95858.53;5015646;28;20504;-81
2023/01/23 06:48:09;;;;;;;13.15;6.45;;;;;;;7.97;77.68;95854.34;5018618;28;20155;-81
2023/01/23 06:50:34;;;;;;;16.30;7.70;;;;;;;7.68;77.64;95800.00;5010366;28;20037;-81
2023/01/23 06:53:00;;;;;;;17.35;7.88;;;;;;;7.74;78.41;95822.81;5017892;28;20057;-81
2023/01/23 06:55:25;;;;;;;18.67;8.48;;;;;;;6.92;78.47;95687.94;5016379;28;20504;-82
2023/01/23 06:57:51;;;;;;;23.02;8.68;;;;;;;7.68;78.76;95813.22;5016311;28;20025;-81
2023/01/23 07:00:16;;;;;;;14.50;7.53;;;;;;;7.62;78.66;95795.69;5014635;28;20048;-80
2023/01/23 07:02:42;;;;;;;15.63;8.65;;;;;;;7.91;79.19;95870.34;5011048;28;20475;-78
2023/01/23 07:05:08;;;;;;;18.00;8.63;;;;;;;7.78;79.32;95854.81;5007476;28;20124;-78
2023/01/23 07:07:33;;;;;;;19.40;10.05;;;;;;;7.13;79.19;95762.91;5002625;28;20041;-78
2023/01/23 07:09:58;;;;;;;18.67;10.45;;;;;;;7.86;79.11;95878.97;5011483;28;20033;-80
2023/01/23 07:12:24;;;;;;;19.33;9.07;;;;;;;7.29;79.40;95799.09;5005420;28;20025;-81
2023/01/23 07:14:49;;;;;;;19.38;9.30;;;;;;;7.15;78.99;95793.31;5005584;28;20046;-81
2023/01/23 07:17:15;;;;;;;17.70;9.38;;;;;;;7.32;78.86;95819.72;5011459;28;20099;-82
2023/01/23 07:19:40;;;;;;;21.92;10.05;;;;;;;7.23;79.21;95826.41;5010179;28;20741;-81
2023/01/23 07:22:07;;;;;;;19.80;9.95;;;;;;;7.10;79.25;95814.31;5014806;28;20048;-82
2023/01/23 07:24:32;;;;;;;22.65;10.27;;;;;;;6.93;79.25;95784.47;5012871;28;20041;-82
2023/01/23 07:26:58;;;;;;;22.13;10.20;;;;;;;7.75;79.22;95882.50;5013520;28;20037;-80
2023/01/23 07:29:23;;;;;;;25.50;11.00;;;;;;;7.56;80.12;95887.16;5011524;28;20045;-80
2023/01/23 07:31:49;;;;;;;23.95;11.20;;;;;;;7.35;80.68;95853.53;5013872;28;20132;-82
2023/01/23 07:34:14;;;;;;;21.77;10.85;;;;;;;7.08;80.84;95820.88;5010991;28;20140;-81
2023/01/23 07:36:40;;;;;;;21.33;11.18;;;;;;;7.62;81.23;95912.66;5013423;28;20030;-81
2023/01/23 07:39:05;;;;;;;21.70;10.13;;;;;;;7.61;81.00;95911.03;5012322;28;20083;-81
2023/01/23 07:41:31;;;;;;;22.35;11.38;;;;;;;7.14;81.81;95844.47;5013313;28;20428;-80
2023/01/23 07:43:56;;;;;;;24.15;11.65;;;;;;;7.04;81.85;95832.91;5015199;28;20044;-80
2023/01/23 07:46:24;;;;;;;22.30;12.73;;;;;;;7.28;81.42;95848.41;5014057;28;20033;-80
2023/01/23 07:48:50;;;;;;;24.80;12.70;;;;;;;7.28;82.32;95861.59;5016680;28;20025;-81
2023/01/23 07:51:15;;;;;;;28.85;13.48;;;;;;;6.73;82.54;95815.69;5014470;28;20055;-80
2023/01/23 07:53:41;;;;;;;25.30;13.85;;;;;;;7.56;83.24;95918.03;5010390;28;20123;-81
2023/01/23 07:56:06;;;;;;;26.80;12.73;;;;;;;6.66;82.67;95775.50;5000312;28;20217;-81
2023/01/23 07:58:32;;;;;;;23.73;12.40;;;;;;;7.47;82.67;95896.53;5043675;28;20716;-83
2023/01/23 08:01:07;;;;;;;23.77;12.90;;;;;;;6.93;82.95;95816.09;5016055;28;20512;-83
2023/01/23 08:03:33;;;;;;;21.40;11.32;;;;;;;7.58;83.34;95915.97;5018357;28;20036;-82
2023/01/23 08:05:58;;;;;;;24.75;10.45;;;;;;;7.43;83.46;95898.03;5023964;28;20051;-83
2023/01/23 08:08:24;;;;;;;19.60;10.25;;;;;;;7.28;83.49;95881.91;5015678;28;20102;-81
2023/01/23 08:10:50;;;;;;;21.63;10.20;;;;;;;7.71;83.20;95955.28;5021066;28;20037;-80
2023/01/23 08:13:15;;;;;;;17.40;10.00;;;;;;;6.61;82.53;95768.28;5004181;28;20056;-82
2023/01/23 08:15:41;;;;;;;20.23;9.65;;;;;;;7.73;82.72;95943.47;5011100;28;20037;-79
2023/01/23 08:18:06;;;;;;;21.15;10.32;;;;;;;7.29;81.94;95870.31;5015808;28;20049;-81
2023/01/23 08:20:32;;;;;;;21.30;11.32;;;;;;;7.34;81.97;95854.56;5011407;28;20038;-80
2023/01/23 08:22:58;;;;;;;22.88;9.93;;;;;;;7.11;81.52;95857.31;5016711;28;20523;-80
2023/01/23 08:25:23;;;;;;;21.77;9.43;;;;;;;7.58;80.36;95953.75;5012453;28;20546;-79
2023/01/23 08:27:49;;;;;;;18.25;9.15;;;;;;;7.37;80.54;95928.00;5012682;28;20128;-79
2023/01/23 08:30:16;;;;;;;18.02;8.95;;;;;;;7.26;79.66;95899.81;5017927;28;20559;-78
2023/01/23 08:32:41;;;;;;;21.38;9.45;;;;;;;7.62;79.36;95975.19;5018047;28;20033;-79
2023/01/23 08:35:07;;;;;;;15.75;8.98;;;;;;;7.61;78.91;95968.31;5016955;28;20047;-79
2023/01/23 08:37:33;;;;;;;17.70;6.75;;;;;;;7.69;77.73;95975.84;5016250;28;20204;-79
2023/01/23 08:39:59;;;;;;;13.50;7.13;;;;;;;7.35;77.79;95935.34;5016864;28;20036;-79
2023/01/23 08:42:24;;;;;;;20.02;7.80;;;;;;;7.81;76.88;95973.16;5017096;28;20348;-79
2023/01/23 08:44:50;;;;;;;17.58;7.10;;;;;;;7.56;76.19;95944.44;5017236;28;20040;-80
2023/01/23 08:47:15;;;;;;;11.63;5.68;;;;;;;7.71;75.86;95979.03;5013880;28;20041;-80
2023/01/23 08:49:41;;;;;;;15.73;5.93;;;;;;;7.61;75.36;95948.00;5014558;28;20424;-79
2023/01/23 08:52:07;;;;;;;12.63;6.45;;;;;;;7.28;75.83;95890.63;5012327;28;20292;-81
2023/01/23 08:54:32;;;;;;;13.20;5.78;;;;;;;6.59;75.97;95796.72;5009100;28;20167;-80
2023/01/23 08:56:58;;;;;;;8.65;5.30;;;;;;;6.70;75.44;95814.34;5014220;28;20429;-82
2023/01/23 08:59:24;;;;;;;13.25;5.97;;;;;;;6.77;75.58;95830.03;5015723;28;20043;-83
2023/01/23 09:01:49;;;;;;;11.75;5.88;;;;;;;7.82;75.15;95987.97;5009404;28;20072;-79
2023/01/23 09:04:16;;;;;;;9.77;5.50;;;;;;;7.73;74.70;95943.47;5008911;28;20120;-79
2023/01/23 09:06:41;;;;;;;12.02;5.70;;;;;;;7.22;74.27;95877.59;5009293;28;20511;-78
2023/01/23 09:09:07;;;;;;;12.05;5.80;;;;;;;7.78;74.01;95952.53;5012993;28;20029;-79
2023/01/23 09:11:32;;;;;;;20.33;7.20;;;;;;;7.92;73.50;95969.69;5016796;28;20029;-80
2023/01/23 09:13:58;;;;;;;14.48;5.68;;;;;;;7.58;73.18;95932.63;5015003;28;20554;-79
2023/01/23 09:16:23;;;;;;;16.05;6.93;;;;;;;7.69;73.14;95981.13;5009690;28;20033;-80
2023/01/23 09:18:48;;;;;;;19.48;7.70;;;;;;;7.81;74.06;95987.16;4995599;28;20517;-80
2023/01/23 09:21:16;;;;;;;14.52;4.80;;;;;;;7.41;73.72;95925.69;5016297;28;20038;-80
2023/01/23 09:23:41;;;;;;;11.93;6.40;;;;;;;7.78;73.64;95994.78;5017860;28;20108;-80
2023/01/23 09:26:12;;;;;;;13.73;6.32;;;;;;;7.40;73.54;95932.78;5014009;28;20044;-80
2023/01/23 09:28:41;;;;;;;12.20;5.55;;;;;;;7.81;74.23;95996.94;5017879;28;20510;-80
2023/01/23 09:31:09;;;;;;;11.45;5.75;;;;;;;7.60;73.67;95961.44;5010066;28;20041;-80
2023/01/23 09:33:36;;;;;;;15.43;6.32;;;;;;;7.33;73.85;95927.66;5014485;28;20030;-80
2023/01/23 09:36:03;;;;;;;15.23;6.30;;;;;;;7.31;73.36;95894.66;5015976;28;20029;-81
2023/01/23 09:38:28;;;;;;;11.15;6.07;;;;;;;7.53;73.25;95902.69;5012617;28;20591;-79
2023/01/23 09:40:56;;;;;;;10.05;5.57;;;;;;;7.40;73.03;95887.16;5014388;28;20037;-81
2023/01/23 09:43:32;;;;;;;13.45;5.55;;;;;;;7.83;73.10;95971.09;5012612;28;20038;-81
2023/01/23 09:46:41;;;;;;;14.10;6.50;;;;;;;7.81;73.32;95965.25;5016269;28;20108;-83
2023/01/23 09:49:42;;;;;;;10.32;5.13;;;;;;;7.14;72.99;95848.94;4992647;28;20061;-84
2023/01/23 09:52:15;;;;;;;12.20;6.23;;;;;;;7.06;73.48;95830.84;5006927;28;20435;-80
2023/01/23 09:54:43;;;;;;;12.35;6.03;;;;;;;7.80;73.51;95956.50;5007015;28;20357;-80
2023/01/23 09:57:25;;;;;;;15.38;6.63;;;;;;;7.94;73.78;95957.00;5010908;28;20053;-79
2023/01/23 10:00:10;;;;;;;10.00;5.65;;;;;;;7.64;73.99;95907.09;5012495;28;20037;-79
2023/01/23 10:02:44;;;;;;;9.35;5.10;;;;;;;7.35;73.90;95874.66;5016892;28;20076;-79
2023/01/23 10:05:17;;;;;;;22.17;6.35;;;;;;;7.84;74.29;95965.59;4998184;28;20435;-79
2023/01/23 10:08:21;;;;;;;12.23;5.30;;;;;;;7.74;74.66;95976.75;5015012;28;20040;-79
2023/01/23 10:11:20;;;;;;;17.38;6.93;;;;;;;7.39;75.10;95939.13;5014438;28;20033;-80
2023/01/23 10:14:01;;;;;;;18.00;6.90;;;;;;;7.62;75.72;95968.09;5021909;28;20057;-79
2023/01/23 10:16:56;;;;;;;12.10;6.77;;;;;;;7.72;75.18;95981.47;5019019;28;20072;-79
2023/01/23 10:20:01;;;;;;;17.23;8.05;;;;;;;7.45;74.96;95932.09;5014340;28;20523;-80
2023/01/23 10:22:33;;;;;;;11.43;6.80;;;;;;;7.20;75.54;95914.75;4998711;28;20107;-79
2023/01/23 10:25:01;;;;;;;13.75;6.75;;;;;;;7.72;75.40;95972.72;5017501;28;20021;-79
2023/01/23 10:27:42;;;;;;;15.05;6.88;;;;;;;7.46;75.67;95931.88;5014257;28;20037;-79
2023/01/23 10:30:28;;;;;;;14.43;8.40;;;;;;;7.64;76.81;95973.91;5015192;28;20029;-79
2023/01/23 10:33:08;;;;;;;13.48;7.28;;;;;;;7.04;76.84;95883.00;5009896;28;20101;-84
2023/01/23 10:35:43;;;;;;;14.95;8.40;;;;;;;7.28;77.45;95906.47;5009570;28;20636;-82
2023/01/23 10:38:42;;;;;;;13.95;7.50;;;;;;;6.88;78.04;95868.72;5008167;28;20029;-80
2023/01/23 10:41:12;;;;;;;12.88;6.97;;;;;;;7.58;77.12;95969.56;5015801;28;20099;-80
2023/01/23 10:43:39;;;;;;;16.58;8.52;;;;;;;7.24;77.81;95896.63;5012203;28;20037;-81
2023/01/23 10:46:13;;;;;;;16.40;6.93;;;;;;;7.61;77.49;95969.13;5010012;28;20788;-80
2023/01/23 10:48:43;;;;;;;13.93;7.57;;;;;;;6.71;77.86;95834.41;5015836;28;20526;-82
2023/01/23 10:51:27;;;;;;;16.75;7.72;;;;;;;7.63;77.99;95956.47;5016537;28;20681;-80
2023/01/23 10:54:25;;;;;;;20.38;9.38;;;;;;;7.54;78.25;95962.38;5015791;28;20132;-81
2023/01/23 10:56:57;;;;;;;17.27;8.98;;;;;;;7.50;78.10;95956.75;5012342;28;20505;-82
2023/01/23 10:59:32;;;;;;;20.02;10.50;;;;;;;6.78;77.95;95835.06;5015519;28;20037;-80
2023/01/23 11:02:12;;;;;;;23.27;9.80;;;;;;;7.54;77.95;95946.53;5016206;28;20038;-80
2023/01/23 11:04:39;;;;;;;16.13;9.48;;;;;;;7.52;78.49;95970.53;5020866;28;20475;-83
2023/01/23 11:07:15;;;;;;;17.92;9.18;;;;;;;7.51;78.61;95960.19;5015198;28;20483;-81
2023/01/23 11:09:48;;;;;;;16.67;9.27;;;;;;;7.59;77.44;95967.75;5016518;28;20615;-80
2023/01/23 11:12:20;;;;;;;19.10;10.23;;;;;;;6.84;78.24;95871.03;5041037;28;20595;-81
2023/01/23 11:14:45;;;;;;;18.88;11.35;;;;;;;6.84;78.69;95862.31;5000064;28;20037;-80
2023/01/23 11:17:18;;;;;;;26.05;12.23;;;;;;;7.64;78.85;95971.28;5003423;28;20033;-80
2023/01/23 11:19:46;;;;;;;14.85;8.60;;;;;;;7.32;77.75;95928.69;5011100;28;20037;-80
2023/01/23 11:22:38;;;;;;;18.27;7.55;;;;;;;7.54;78.36;95965.00;5009807;28;20525;-79
2023/01/23 11:25:50;;;;;;;12.27;7.85;;;;;;;7.61;78.68;95976.22;5005641;28;20585;-79
2023/01/23 11:28:32;;;;;;;13.50;7.30;;;;;;;6.62;78.88;95825.25;4999674;28;20048;-80
2023/01/23 11:31:20;;;;;;;13.50;7.50;;;;;;;7.64;79.13;95968.63;5006989;28;20033;-79
2023/01/23 11:33:57;;;;;;;16.80;7.13;;;;;;;7.70;79.22;95962.41;5001263;28;20113;-79
2023/01/23 11:36:34;;;;;;;14.07;7.95;;;;;;;7.70;78.56;95961.63;5007747;28;20044;-80
2023/01/23 11:39:15;;;;;;;19.10;7.03;;;;;;;7.38;79.23;95923.53;5021881;28;20907;-78
2023/01/23 11:41:42;;;;;;;10.20;6.20;;;;;;;6.94;78.67;95855.41;5011683;28;20039;-77
2023/01/23 11:44:14;;;;;;;12.52;7.18;;;;;;;7.58;78.52;95963.50;5004628;28;20037;-78
2023/01/23 11:46:48;;;;;;;12.13;6.70;;;;;;;6.97;79.55;95888.44;5005327;28;20036;-79